Time;durP1;ratioP1;P1;durP2;ratioP2;P2;SDS_P1;SDS_P2;PMS_P1;PMS_P2;Temp;Humidity;BMP_temperature;BMP_pressure;BME280_temperature;BME280_humidity;BME280_pressure;Samples;Min_cycle;Max_cycle;Signal;HPM_P1;HPM_P2
2022/11/29 00:01:12;;;;;;;20.63;19.37;;;8.00;16.20;;;;;;5090560;28;20436;-78
2022/11/29 00:03:41;;;;;;;19.77;18.60;;;7.90;21.50;;;;;;5094759;27;21128;-79
2022/11/29 00:06:11;;;;;;;21.10;19.60;;;8.00;21.80;;;;;;5096007;27;20467;-77
2022/11/29 00:08:41;;;;;;;20.07;18.67;;;8.00;26.10;;;;;;5097826;28;20459;-79
2022/11/29 00:11:11;;;;;;;19.50;18.40;;;8.00;21.60;;;;;;5094336;28;20484;-77
2022/11/29 00:13:40;;;;;;;20.43;18.90;;;8.00;24.10;;;;;;5094419;27;20455;-78
2022/11/29 00:16:11;;;;;;;23.30;21.60;;;8.00;19.00;;;;;;5093738;27;20484;-79
2022/11/29 00:18:40;;;;;;;21.00;19.30;;;8.00;29.30;;;;;;5096041;27;20673;-78
2022/11/29 00:21:09;;;;;;;21.03;19.53;;;8.00;39.70;;;;;;5094267;28;20547;-77
2022/11/29 00:23:37;;;;;;;20.90;19.50;;;7.90;40.60;;;;;;5092182;27;21312;-78
2022/11/29 00:26:07;;;;;;;19.30;18.10;;;7.90;54.10;;;;;;5094638;28;20985;-77
2022/11/29 00:28:36;;;;;;;19.53;18.40;;;8.00;55.30;;;;;;5093362;28;21068;-77
2022/11/29 00:31:15;;;;;;;21.17;19.40;;;8.00;44.40;;;;;;5087121;28;20605;-77
2022/11/29 00:33:43;;;;;;;18.40;17.17;;;8.00;40.40;;;;;;5092671;28;20450;-77
2022/11/29 00:36:12;;;;;;;19.77;18.57;;;8.10;34.90;;;;;;5095411;27;21319;-77
2022/11/29 00:38:40;;;;;;;19.43;18.00;;;8.00;37.30;;;;;;5094237;28;20456;-77
2022/11/29 00:41:09;;;;;;;18.70;17.57;;;8.00;37.60;;;;;;5093618;28;20455;-77
2022/11/29 00:43:38;;;;;;;20.27;18.80;;;8.00;48.70;;;;;;5094034;28;20548;-78
2022/11/29 00:46:07;;;;;;;18.93;17.57;;;8.00;50.10;;;;;;5089277;27;20476;-78
2022/11/29 00:48:37;;;;;;;19.73;18.33;;;8.00;57.20;;;;;;5091676;28;20832;-78
2022/11/29 00:51:06;;;;;;;19.20;18.10;;;8.00;54.70;;;;;;5093663;28;20448;-77
2022/11/29 00:53:35;;;;;;;20.37;18.93;;;8.00;49.80;;;;;;5093438;28;20520;-77
2022/11/29 00:56:04;;;;;;;17.83;16.93;;;8.00;53.50;;;;;;5096213;28;20853;-77
2022/11/29 00:58:32;;;;;;;18.20;17.00;;;8.00;58.40;;;;;;5094169;27;20467;-77
2022/11/29 01:01:00;;;;;;;18.50;17.47;;;8.00;52.20;;;;;;5096065;28;20492;-77
2022/11/29 01:03:29;;;;;;;18.60;17.60;;;8.10;45.30;;;;;;5092040;27;20444;-77
2022/11/29 01:06:03;;;;;;;18.07;17.17;;;8.10;36.20;;;;;;5092139;27;20483;-76
2022/11/29 01:08:31;;;;;;;16.93;16.13;;;8.20;39.80;;;;;;5092296;27;20456;-77
2022/11/29 01:11:05;;;;;;;17.67;16.57;;;8.10;37.10;;;;;;5093629;28;20461;-76
2022/11/29 01:13:34;;;;;;;16.87;15.97;;;8.20;37.60;;;;;;5088574;28;20476;-77
2022/11/29 01:16:02;;;;;;;17.40;16.50;;;8.10;30.60;;;;;;5088010;28;20478;-75
2022/11/29 01:18:31;;;;;;;16.90;16.00;;;8.10;41.60;;;;;;5092453;27;20560;-76
2022/11/29 01:21:02;;;;;;;17.40;16.50;;;8.10;36.80;;;;;;5094641;28;20956;-77
2022/11/29 01:23:30;;;;;;;17.00;16.20;;;8.20;29.20;;;;;;5091493;27;20443;-76
2022/11/29 01:26:02;;;;;;;18.33;17.27;;;8.20;29.20;;;;;;5090359;28;20483;-77
2022/11/29 01:28:31;;;;;;;16.73;15.93;;;8.10;39.80;;;;;;5088675;28;20449;-76
2022/11/29 01:30:59;;;;;;;17.93;16.87;;;8.00;44.40;;;;;;5089967;28;21146;-76
2022/11/29 01:33:28;;;;;;;16.57;15.67;;;8.10;48.70;;;;;;5089760;28;20477;-79
2022/11/29 01:35:56;;;;;;;15.60;15.00;;;8.10;38.30;;;;;;5091423;27;20555;-77
2022/11/29 01:38:25;;;;;;;15.97;15.27;;;8.20;41.10;;;;;;5088574;28;20453;-77
2022/11/29 01:40:59;;;;;;;16.23;15.53;;;8.20;28.80;;;;;;5094765;28;20454;-77
2022/11/29 01:43:27;;;;;;;17.10;16.20;;;8.20;27.40;;;;;;5095996;28;20456;-77
2022/11/29 01:45:56;;;;;;;16.00;15.20;;;8.20;37.00;;;;;;5092240;28;21003;-77
2022/11/29 01:48:27;;;;;;;15.17;14.50;;;8.10;28.50;;;;;;5088650;28;20449;-76
2022/11/29 01:50:59;;;;;;;14.57;13.87;;;8.10;30.60;;;;;;5094363;27;20454;-77
2022/11/29 01:53:29;;;;;;;14.97;14.27;;;8.20;37.20;;;;;;5095952;27;20456;-78
2022/11/29 01:56:03;;;;;;;15.27;14.67;;;8.20;33.80;;;;;;5094209;27;20833;-77
2022/11/29 01:58:31;;;;;;;15.70;14.63;;;8.10;37.20;;;;;;5085223;28;20901;-77
2022/11/29 02:01:01;;;;;;;14.67;14.07;;;8.20;36.70;;;;;;5096534;27;20455;-78
2022/11/29 02:03:29;;;;;;;15.60;14.70;;;8.20;25.60;;;;;;5091938;27;20986;-76
2022/11/29 02:05:57;;;;;;;14.60;14.00;;;8.10;27.90;;;;;;5107881;27;20520;-78
2022/11/29 02:08:35;;;;;;;15.20;14.50;;;8.20;29.00;;;;;;5093174;27;20447;-76
2022/11/29 02:11:47;;;;;;;13.77;13.33;;;8.20;23.30;;;;;;5091393;28;20472;-77
2022/11/29 02:14:29;;;;;;;14.70;14.10;;;8.20;25.50;;;;;;5072963;28;21505;-76
2022/11/29 02:17:07;;;;;;;14.63;13.93;;;8.10;26.40;;;;;;5092485;28;20475;-78
2022/11/29 02:20:00;;;;;;;14.53;13.93;;;8.10;38.90;;;;;;5094137;28;20454;-76
2022/11/29 02:22:33;;;;;;;14.40;13.90;;;8.20;26.50;;;;;;5093165;28;20460;-78
2022/11/29 02:25:19;;;;;;;14.20;13.70;;;8.20;34.30;;;;;;5096970;27;20810;-77
2022/11/29 02:28:32;;;;;;;14.03;13.53;;;8.10;29.20;;;;;;5092243;28;20523;-78
2022/11/29 02:31:35;;;;;;;14.70;14.10;;;8.10;27.30;;;;;;5093232;28;20456;-76
2022/11/29 02:34:38;;;;;;;14.20;13.63;;;8.00;34.40;;;;;;5086464;27;20999;-77
2022/11/29 02:37:22;;;;;;;14.00;13.50;;;8.00;43.40;;;;;;5095262;27;20532;-79
2022/11/29 02:40:25;;;;;;;14.63;13.93;;;8.00;53.00;;;;;;5088570;28;21163;-78
2022/11/29 02:43:20;;;;;;;15.30;14.60;;;8.00;64.80;;;;;;5090381;28;20436;-77
2022/11/29 02:46:08;;;;;;;14.70;14.10;;;7.90;73.80;;;;;;5088247;28;20455;-77
2022/11/29 02:48:53;;;;;;;15.10;14.40;;;7.90;67.50;;;;;;5092844;27;20469;-78
2022/11/29 02:51:27;;;;;;;14.83;14.23;;;7.80;73.70;;;;;;5092290;28;20714;-77
2022/11/29 02:54:02;;;;;;;15.10;14.43;;;7.90;70.40;;;;;;5087803;28;20555;-77
2022/11/29 02:56:37;;;;;;;15.90;15.20;;;7.90;72.60;;;;;;5092677;28;21021;-77
2022/11/29 02:59:13;;;;;;;15.20;14.50;;;7.90;73.60;;;;;;5097750;28;20544;-76
2022/11/29 03:01:52;;;;;;;15.10;14.40;;;7.90;69.60;;;;;;5092469;28;20447;-76
2022/11/29 03:04:28;;;;;;;15.37;14.57;;;7.90;67.90;;;;;;5093910;28;20554;-76
2022/11/29 03:07:05;;;;;;;14.03;13.53;;;7.90;67.30;;;;;;5094230;28;21032;-75
2022/11/29 03:09:40;;;;;;;14.53;13.93;;;7.90;65.00;;;;;;5094405;28;20449;-75
2022/11/29 03:12:18;;;;;;;14.50;13.97;;;8.00;59.60;;;;;;5092862;28;20548;-76
2022/11/29 03:14:56;;;;;;;13.73;13.23;;;8.00;44.50;;;;;;5092007;28;21097;-77
2022/11/29 03:17:35;;;;;;;14.07;13.43;;;8.00;42.90;;;;;;5096005;28;20473;-77
2022/11/29 03:20:14;;;;;;;13.73;13.23;;;8.10;35.20;;;;;;5093790;28;20457;-78
2022/11/29 03:22:55;;;;;;;14.30;13.70;;;8.00;35.40;;;;;;5093047;28;20855;-77
2022/11/29 03:25:29;;;;;;;15.10;14.40;;;8.00;41.50;;;;;;5097914;28;20835;-75
2022/11/29 03:28:02;;;;;;;13.67;13.07;;;8.00;24.40;;;;;;5085574;28;20496;-78
2022/11/29 03:30:34;;;;;;;14.97;14.37;;;8.00;28.60;;;;;;5095768;28;20532;-77
2022/11/29 03:33:09;;;;;;;14.03;13.40;;;8.10;27.10;;;;;;5092216;28;21015;-76
2022/11/29 03:35:42;;;;;;;13.80;13.20;;;8.00;25.90;;;;;;5096328;28;20562;-76
2022/11/29 03:38:20;;;;;;;14.47;13.87;;;8.00;34.90;;;;;;5091557;28;20555;-77
2022/11/29 03:40:54;;;;;;;15.10;14.50;;;8.00;42.20;;;;;;5096397;28;20456;-77
2022/11/29 03:43:29;;;;;;;14.00;13.40;;;7.90;41.70;;;;;;5095834;27;20495;-79
2022/11/29 03:46:02;;;;;;;13.40;13.00;;;8.00;44.10;;;;;;5099672;28;20912;-78
2022/11/29 03:48:35;;;;;;;13.93;13.43;;;8.00;48.60;;;;;;5100100;27;20462;-76
2022/11/29 03:51:07;;;;;;;13.50;13.10;;;7.90;50.60;;;;;;5099063;28;20536;-77
2022/11/29 03:53:44;;;;;;;13.50;13.10;;;8.00;44.00;;;;;;5095906;28;20625;-77
2022/11/29 03:56:32;;;;;;;13.53;13.03;;;8.00;35.20;;;;;;5096349;28;20477;-77
2022/11/29 03:59:11;;;;;;;13.23;12.83;;;8.00;37.00;;;;;;5093709;28;20474;-77
2022/11/29 04:02:08;;;;;;;13.10;12.70;;;8.00;32.20;;;;;;5095228;27;20542;-77
2022/11/29 04:05:05;;;;;;;13.67;13.07;;;8.00;19.80;;;;;;5097367;27;20453;-77
2022/11/29 04:07:48;;;;;;;13.43;12.93;;;8.00;26.10;;;;;;5095971;27;20470;-77
2022/11/29 04:10:32;;;;;;;13.00;12.60;;;8.00;35.80;;;;;;5097686;28;20861;-77
2022/11/29 04:13:53;;;;;;;13.50;12.90;;;8.00;41.80;;;;;;5095590;28;20445;-76
2022/11/29 04:17:24;;;;;;;13.70;12.90;;;8.00;42.80;;;;;;5042137;28;20478;-77
2022/11/29 04:20:25;;;;;;;13.60;12.93;;;8.00;32.00;;;;;;5014604;28;20455;-76
2022/11/29 04:23:35;;;;;;;12.50;12.10;;;7.90;42.70;;;;;;5013266;28;20455;-78
2022/11/29 04:26:38;;;;;;;12.90;12.57;;;7.90;55.70;;;;;;5095107;28;20554;-77
2022/11/29 04:29:22;;;;;;;12.90;12.50;;;7.90;48.50;;;;;;5093793;28;20528;-77
2022/11/29 04:32:19;;;;;;;13.00;12.40;;;7.90;41.30;;;;;;5094201;27;20466;-77
2022/11/29 04:34:59;;;;;;;12.50;12.10;;;7.90;25.50;;;;;;5095016;28;21009;-78
2022/11/29 04:38:06;;;;;;;12.87;12.37;;;8.00;36.80;;;;;;5096017;28;20522;-78
2022/11/29 04:40:52;;;;;;;12.80;12.40;;;8.00;45.40;;;;;;5013014;28;20978;-78
2022/11/29 04:43:47;;;;;;;12.50;11.90;;;7.90;36.90;;;;;;5090007;27;20486;-78
2022/11/29 04:46:39;;;;;;;12.93;12.43;;;8.00;26.00;;;;;;5096621;28;20477;-77
2022/11/29 04:49:27;;;;;;;12.33;11.93;;;8.00;25.80;;;;;;5090847;28;20525;-78
2022/11/29 04:52:24;;;;;;;12.47;12.03;;;8.00;37.80;;;;;;5094238;28;20466;-77
2022/11/29 04:55:00;;;;;;;12.67;12.17;;;8.00;37.90;;;;;;5096946;27;20471;-76
2022/11/29 04:57:35;;;;;;;13.40;13.00;;;8.00;37.20;;;;;;5091602;28;20559;-76
2022/11/29 05:00:09;;;;;;;12.83;12.37;;;8.00;25.50;;;;;;5097713;27;20485;-78
2022/11/29 05:02:45;;;;;;;12.50;12.10;;;8.00;19.50;;;;;;5088272;28;20508;-75
2022/11/29 05:05:23;;;;;;;12.93;12.33;;;8.10;21.60;;;;;;5085201;28;20441;-77
2022/11/29 05:08:09;;;;;;;12.77;12.37;;;8.00;23.10;;;;;;5094068;27;20483;-76
2022/11/29 05:10:44;;;;;;;12.73;12.13;;;7.90;29.30;;;;;;5095848;28;20444;-77
2022/11/29 05:13:18;;;;;;;13.10;12.50;;;8.00;25.90;;;;;;5090090;28;20454;-78
2022/11/29 05:16:06;;;;;;;13.03;12.60;;;8.00;31.30;;;;;;5094392;28;20456;-77
2022/11/29 05:19:11;;;;;;;13.13;12.53;;;8.00;27.70;;;;;;5092352;28;20552;-79
2022/11/29 05:21:47;;;;;;;13.20;12.80;;;8.00;33.10;;;;;;5096213;27;20507;-76
2022/11/29 05:24:26;;;;;;;12.83;12.40;;;7.90;33.30;;;;;;5094487;27;20457;-77
2022/11/29 05:27:00;;;;;;;13.23;12.83;;;7.90;49.50;;;;;;5095375;28;20471;-78
2022/11/29 05:29:37;;;;;;;13.90;13.30;;;7.90;58.50;;;;;;5095022;27;21125;-78
2022/11/29 05:32:22;;;;;;;13.97;13.37;;;7.90;59.30;;;;;;5092978;27;21058;-78
2022/11/29 05:35:18;;;;;;;12.93;12.53;;;7.80;62.30;;;;;;5093662;28;20810;-79
2022/11/29 05:37:50;;;;;;;17.00;16.20;;;7.90;63.30;;;;;;5092616;28;20475;-77
2022/11/29 05:40:45;;;;;;;19.97;18.57;;;8.00;58.60;;;;;;5094127;28;20480;-77
2022/11/29 05:43:27;;;;;;;14.37;13.70;;;7.90;54.70;;;;;;5091703;28;20462;-78
2022/11/29 05:46:02;;;;;;;13.70;13.10;;;7.90;48.40;;;;;;5088687;28;20447;-76
2022/11/29 05:48:43;;;;;;;14.23;13.63;;;8.00;39.60;;;;;;5092375;28;20460;-78
2022/11/29 05:51:21;;;;;;;14.83;14.10;;;8.00;36.80;;;;;;5097484;27;20454;-79
2022/11/29 05:53:57;;;;;;;16.37;15.27;;;8.00;39.50;;;;;;5092300;28;20521;-77
2022/11/29 05:56:36;;;;;;;17.60;16.40;;;8.00;43.90;;;;;;5092827;27;20484;-77
2022/11/29 05:59:09;;;;;;;15.33;14.43;;;8.00;49.40;;;;;;5091696;28;20504;-76
2022/11/29 06:01:46;;;;;;;14.63;14.10;;;8.00;48.50;;;;;;5094741;28;20439;-76
2022/11/29 06:04:21;;;;;;;14.30;13.70;;;8.00;42.70;;;;;;5091748;28;20456;-79
2022/11/29 06:06:57;;;;;;;14.47;13.90;;;7.90;50.60;;;;;;5092855;27;20477;-76
2022/11/29 06:09:30;;;;;;;14.97;14.00;;;7.90;56.90;;;;;;5091619;28;20572;-78
2022/11/29 06:12:04;;;;;;;14.87;14.27;;;7.90;52.10;;;;;;5092555;28;20478;-77
2022/11/29 06:14:49;;;;;;;14.83;14.27;;;7.90;62.60;;;;;;5094985;27;20835;-77
2022/11/29 06:17:44;;;;;;;14.37;13.97;;;7.80;56.80;;;;;;5082155;28;22142;-76
2022/11/29 06:20:42;;;;;;;15.23;14.47;;;7.90;67.90;;;;;;5089918;28;20530;-77
2022/11/29 06:23:31;;;;;;;18.10;17.00;;;7.90;60.50;;;;;;5091683;28;20483;-77
2022/11/29 06:26:19;;;;;;;15.27;14.70;;;7.90;50.70;;;;;;5091138;28;20553;-79
2022/11/29 06:29:01;;;;;;;15.67;14.90;;;7.90;53.60;;;;;;5091046;28;20456;-78
2022/11/29 06:31:34;;;;;;;14.57;13.97;;;8.00;47.50;;;;;;5091551;27;20539;-79
2022/11/29 06:34:07;;;;;;;14.17;13.67;;;7.90;42.90;;;;;;5091419;28;21021;-77
2022/11/29 06:36:43;;;;;;;14.87;14.27;;;7.90;45.20;;;;;;5090013;28;20562;-77
2022/11/29 06:39:12;;;;;;;14.20;13.80;;;7.90;50.00;;;;;;5091261;27;20478;-78
2022/11/29 06:41:40;;;;;;;14.60;14.00;;;7.90;48.50;;;;;;5095994;27;20521;-78
2022/11/29 06:44:10;;;;;;;14.70;14.20;;;7.90;50.40;;;;;;5089121;27;20451;-77
2022/11/29 06:46:45;;;;;;;14.47;13.97;;;7.90;49.10;;;;;;5093446;28;20547;-76
2022/11/29 06:49:21;;;;;;;14.50;13.90;;;8.00;42.30;;;;;;5094197;28;20451;-78
2022/11/29 06:52:03;;;;;;;14.80;14.13;;;8.00;43.90;;;;;;5097530;28;20991;-78
2022/11/29 06:54:48;;;;;;;13.80;13.40;;;8.00;37.10;;;;;;5090529;28;20598;-77
2022/11/29 06:57:22;;;;;;;14.17;13.67;;;8.00;41.10;;;;;;5090832;28;20550;-77
2022/11/29 07:00:04;;;;;;;15.53;14.83;;;7.90;44.70;;;;;;5088825;28;20459;-78
2022/11/29 07:02:53;;;;;;;15.07;14.57;;;7.90;56.60;;;;;;5092691;27;20986;-78
2022/11/29 07:05:26;;;;;;;14.90;14.40;;;7.90;63.30;;;;;;5089621;27;20460;-78
2022/11/29 07:08:00;;;;;;;15.33;14.83;;;7.90;65.80;;;;;;5089393;28;20574;-78
2022/11/29 07:10:31;;;;;;;15.80;15.30;;;7.90;59.60;;;;;;5089664;28;20459;-77
2022/11/29 07:13:00;;;;;;;15.10;14.40;;;7.90;59.50;;;;;;5088724;28;20473;-79
2022/11/29 07:15:29;;;;;;;15.20;14.70;;;7.90;61.80;;;;;;5093718;28;20499;-78
2022/11/29 07:18:13;;;;;;;16.20;15.60;;;7.90;60.30;;;;;;5094525;28;20532;-78
2022/11/29 07:20:51;;;;;;;15.60;15.10;;;7.90;51.80;;;;;;5093748;28;20496;-77
2022/11/29 07:23:32;;;;;;;15.03;14.53;;;8.00;45.30;;;;;;5094396;28;20454;-76
2022/11/29 07:26:14;;;;;;;17.10;16.00;;;7.90;51.00;;;;;;5090237;28;20486;-79
2022/11/29 07:28:56;;;;;;;14.73;14.30;;;7.90;51.00;;;;;;5088412;28;20459;-78
2022/11/29 07:31:33;;;;;;;15.10;14.50;;;7.90;52.40;;;;;;5093495;28;20463;-79
2022/11/29 07:34:11;;;;;;;15.60;15.10;;;7.90;49.10;;;;;;5087795;28;20573;-78
2022/11/29 07:36:49;;;;;;;15.27;14.87;;;7.90;51.70;;;;;;5087520;28;20485;-78
2022/11/29 07:39:28;;;;;;;15.87;15.07;;;7.90;56.40;;;;;;5096901;28;20859;-77
2022/11/29 07:42:04;;;;;;;15.50;14.80;;;7.90;66.90;;;;;;5096120;28;20471;-78
2022/11/29 07:44:38;;;;;;;14.87;14.47;;;7.90;63.80;;;;;;5094873;28;20454;-80
2022/11/29 07:47:08;;;;;;;15.33;14.63;;;7.90;62.50;;;;;;5095302;28;20541;-79
2022/11/29 07:49:36;;;;;;;15.80;15.30;;;7.90;66.70;;;;;;5093869;28;20873;-78
2022/11/29 07:52:04;;;;;;;15.70;15.10;;;7.90;67.00;;;;;;5095497;28;21027;-79
2022/11/29 07:54:34;;;;;;;16.27;15.67;;;7.90;74.30;;;;;;5092980;28;20444;-78
2022/11/29 07:57:02;;;;;;;15.33;14.80;;;8.00;73.50;;;;;;5091617;28;20481;-79
2022/11/29 07:59:30;;;;;;;15.67;14.97;;;8.10;73.90;;;;;;5089836;28;20470;-77
2022/11/29 08:01:58;;;;;;;15.93;15.23;;;8.10;74.10;;;;;;5092026;28;20459;-79
2022/11/29 08:04:27;;;;;;;16.03;15.30;;;8.00;80.70;;;;;;5092231;28;20448;-78
2022/11/29 08:06:58;;;;;;;17.90;16.90;;;8.00;81.60;;;;;;5097095;28;20498;-77
2022/11/29 08:09:26;;;;;;;16.70;15.90;;;8.00;91.10;;;;;;5094484;28;20943;-78
2022/11/29 08:11:56;;;;;;;16.70;16.03;;;8.00;94.70;;;;;;5096178;28;20489;-78
2022/11/29 08:14:24;;;;;;;16.20;15.60;;;8.10;93.50;;;;;;5088700;28;20885;-79
2022/11/29 08:16:52;;;;;;;16.67;16.07;;;8.10;74.10;;;;;;5094284;28;20479;-79
2022/11/29 08:19:21;;;;;;;16.73;16.10;;;8.10;84.40;;;;;;5088916;28;20448;-79
2022/11/29 08:21:49;;;;;;;17.43;16.63;;;8.10;78.70;;;;;;5096327;28;20458;-79
2022/11/29 08:24:18;;;;;;;16.47;15.97;;;8.10;84.50;;;;;;5087896;28;20501;-80
2022/11/29 08:26:46;;;;;;;17.30;16.30;;;8.10;86.00;;;;;;5093272;28;20486;-78
2022/11/29 08:29:16;;;;;;;16.30;15.60;;;8.10;91.40;;;;;;5092010;28;20540;-79
2022/11/29 08:31:44;;;;;;;16.10;15.50;;;8.20;81.40;;;;;;5097994;27;20460;-78
2022/11/29 08:34:12;;;;;;;16.50;15.80;;;8.20;72.90;;;;;;5092615;27;20449;-79
2022/11/29 08:36:41;;;;;;;16.17;15.57;;;8.10;72.90;;;;;;5098447;27;20487;-78
2022/11/29 08:39:09;;;;;;;15.80;15.30;;;8.20;79.00;;;;;;5096424;27;20869;-79
2022/11/29 08:41:37;;;;;;;15.33;14.83;;;8.20;81.80;;;;;;5095322;28;20518;-77
2022/11/29 08:44:06;;;;;;;15.60;15.00;;;8.20;85.50;;;;;;5095862;27;20468;-78
2022/11/29 08:49:21;;;;;;;16.00;15.40;;;8.10;89.60;;;;;;5094729;28;20490;-78
2022/11/29 08:51:51;;;;;;;16.30;15.80;;;8.20;90.40;;;;;;5098823;28;20456;-79
2022/11/29 08:54:18;;;;;;;16.03;15.43;;;8.30;77.50;;;;;;5095856;27;20452;-78
2022/11/29 08:56:46;;;;;;;16.57;15.87;;;8.20;74.70;;;;;;5097359;28;21327;-78
2022/11/29 08:59:35;;;;;;;16.53;15.83;;;8.20;84.20;;;;;;5099866;28;20543;-77
2022/11/29 09:02:04;;;;;;;16.43;15.73;;;8.20;88.90;;;;;;5100592;28;20481;-80
2022/11/29 09:04:33;;;;;;;16.50;15.80;;;8.30;90.50;;;;;;5095200;28;20461;-78
2022/11/29 09:07:01;;;;;;;17.33;16.57;;;8.30;87.50;;;;;;5099516;28;20473;-79
2022/11/29 09:09:29;;;;;;;16.97;16.27;;;8.30;86.40;;;;;;5090189;28;20465;-79
2022/11/29 09:11:57;;;;;;;17.03;16.33;;;8.30;88.60;;;;;;5097761;28;20488;-77
2022/11/29 09:14:25;;;;;;;17.30;16.40;;;8.30;82.30;;;;;;5097494;28;20488;-77
2022/11/29 09:16:53;;;;;;;18.00;17.10;;;8.30;81.10;;;;;;5097600;28;20484;-78
2022/11/29 09:19:23;;;;;;;18.20;17.30;;;8.40;82.10;;;;;;5097750;27;20763;-78
2022/11/29 09:21:51;;;;;;;18.47;17.27;;;8.40;73.30;;;;;;5090081;28;20459;-78
2022/11/29 09:24:20;;;;;;;18.53;17.83;;;8.30;74.00;;;;;;5098343;28;20533;-78
2022/11/29 09:26:48;;;;;;;18.47;17.50;;;8.40;71.10;;;;;;5097393;28;20521;-78
2022/11/29 09:29:16;;;;;;;18.77;17.87;;;8.30;78.50;;;;;;5094207;28;20543;-77
2022/11/29 09:31:44;;;;;;;18.07;17.27;;;8.30;77.40;;;;;;5086028;28;20483;-80
2022/11/29 09:34:13;;;;;;;19.23;18.23;;;8.30;79.50;;;;;;5095556;28;20455;-78
2022/11/29 09:36:43;;;;;;;18.80;17.80;;;8.30;90.40;;;;;;5097893;28;20488;-78
2022/11/29 09:39:12;;;;;;;18.03;17.27;;;8.30;85.70;;;;;;5092445;28;20540;-79
2022/11/29 09:42:08;;;;;;;18.33;17.50;;;8.40;88.10;;;;;;5097459;28;20845;-78
2022/11/29 09:44:47;;;;;;;18.23;17.23;;;8.40;80.10;;;;;;5098483;28;20458;-79
2022/11/29 09:47:27;;;;;;;17.93;17.13;;;8.30;77.60;;;;;;5097513;28;20467;-78
2022/11/29 09:50:03;;;;;;;17.43;16.73;;;8.40;81.80;;;;;;5095003;28;20451;-79
2022/11/29 09:52:47;;;;;;;18.67;17.87;;;8.40;74.20;;;;;;5093646;28;21041;-78
2022/11/29 09:55:48;;;;;;;18.50;17.70;;;8.40;67.40;;;;;;5094187;28;20875;-78
2022/11/29 09:58:20;;;;;;;17.77;16.97;;;8.40;66.70;;;;;;5090708;28;20460;-78
2022/11/29 10:00:51;;;;;;;18.00;17.20;;;8.40;68.40;;;;;;5094535;27;20448;-78
2022/11/29 10:03:24;;;;;;;18.73;17.93;;;8.40;70.70;;;;;;5093104;28;20871;-78
2022/11/29 10:05:57;;;;;;;17.10;16.30;;;8.60;60.80;;;;;;5093923;28;20847;-77
2022/11/29 10:08:33;;;;;;;18.37;17.67;;;8.50;45.00;;;;;;5096729;28;20856;-79
2022/11/29 10:11:14;;;;;;;17.93;17.17;;;8.50;52.50;;;;;;5094294;27;20452;-78
2022/11/29 10:13:46;;;;;;;17.83;17.13;;;8.40;70.50;;;;;;5094309;27;21118;-78
2022/11/29 10:16:22;;;;;;;17.97;17.00;;;8.40;76.50;;;;;;5094577;28;20485;-78
2022/11/29 10:18:56;;;;;;;19.50;18.47;;;8.40;75.10;;;;;;5096832;28;20970;-79
2022/11/29 10:21:29;;;;;;;18.47;17.70;;;8.50;74.00;;;;;;5095439;28;21159;-78
2022/11/29 10:24:02;;;;;;;17.33;16.67;;;8.50;65.90;;;;;;5094299;28;20468;-78
2022/11/29 10:26:31;;;;;;;17.90;17.00;;;8.40;64.50;;;;;;5093901;28;20562;-78
2022/11/29 10:29:03;;;;;;;17.70;17.00;;;8.50;75.80;;;;;;5095778;27;20448;-78
2022/11/29 10:31:35;;;;;;;17.77;17.07;;;8.40;80.50;;;;;;5094041;28;20491;-78
2022/11/29 10:34:13;;;;;;;17.83;17.03;;;8.60;76.80;;;;;;5095339;28;20482;-77
2022/11/29 10:36:45;;;;;;;18.70;17.90;;;8.60;64.20;;;;;;5093777;28;20473;-79
2022/11/29 10:39:29;;;;;;;18.00;17.30;;;8.60;74.60;;;;;;5094726;28;20551;-79
2022/11/29 10:42:02;;;;;;;18.33;17.63;;;8.60;70.70;;;;;;5090134;28;20814;-80
2022/11/29 10:44:33;;;;;;;18.67;17.87;;;8.60;60.50;;;;;;5095368;27;20466;-78
2022/11/29 10:47:05;;;;;;;18.90;18.00;;;8.60;66.50;;;;;;5095081;27;20534;-79
2022/11/29 10:49:39;;;;;;;17.73;17.03;;;8.50;71.40;;;;;;5091819;28;20454;-78
2022/11/29 10:52:17;;;;;;;18.13;17.33;;;8.60;66.40;;;;;;5095036;28;20455;-78
2022/11/29 10:54:49;;;;;;;20.17;19.00;;;8.60;65.10;;;;;;5091349;28;20481;-77
2022/11/29 10:57:20;;;;;;;20.33;19.33;;;8.70;81.90;;;;;;5089220;28;20498;-78
2022/11/29 10:59:59;;;;;;;19.33;18.43;;;8.60;73.90;;;;;;5093106;27;20464;-79
2022/11/29 11:02:28;;;;;;;21.20;19.90;;;8.70;71.50;;;;;;5091534;28;21186;-78
2022/11/29 11:04:57;;;;;;;19.87;18.60;;;8.60;76.30;;;;;;5089693;28;20491;-78
2022/11/29 11:07:28;;;;;;;19.90;18.90;;;8.60;74.80;;;;;;5090368;28;20504;-78
2022/11/29 11:09:59;;;;;;;20.10;18.80;;;8.60;70.10;;;;;;5090332;28;20460;-77
2022/11/29 11:12:29;;;;;;;20.60;19.17;;;8.60;87.20;;;;;;5095617;28;20448;-77
2022/11/29 11:15:26;;;;;;;19.30;18.40;;;8.70;74.40;;;;;;5092716;28;20452;-77
2022/11/29 11:17:57;;;;;;;18.97;18.07;;;8.60;79.90;;;;;;5095444;27;20512;-77
2022/11/29 11:20:29;;;;;;;19.60;18.60;;;8.60;82.20;;;;;;5092644;28;20474;-75
2022/11/29 11:22:59;;;;;;;19.60;18.50;;;8.60;87.70;;;;;;5090993;28;20862;-77
2022/11/29 11:25:33;;;;;;;19.67;18.77;;;8.60;86.30;;;;;;5095147;28;20458;-77
2022/11/29 11:28:16;;;;;;;18.97;18.03;;;8.50;93.20;;;;;;5090446;28;21291;-79
2022/11/29 11:30:51;;;;;;;19.57;18.37;;;8.60;87.70;;;;;;5091813;28;20451;-77
2022/11/29 11:33:21;;;;;;;18.27;17.47;;;8.60;68.80;;;;;;5089405;28;20454;-77
2022/11/29 11:36:08;;;;;;;19.03;18.10;;;8.60;66.20;;;;;;5091438;28;20444;-79
2022/11/29 11:38:38;;;;;;;18.47;17.67;;;8.70;65.60;;;;;;5091619;28;20557;-76
2022/11/29 11:42:35;;;;;;;18.10;17.30;;;8.80;48.20;;;;;;5089629;28;20521;-78
2022/11/29 11:44:37;;;;;;;19.00;18.17;;;8.80;37.50;;;;;;5089049;28;20486;-77
2022/11/29 11:47:27;;;;;;;18.60;17.80;;;8.70;44.20;;;;;;5095132;28;21366;-78
2022/11/29 11:50:05;;;;;;;18.43;17.63;;;8.70;49.20;;;;;;5088682;28;20492;-78
2022/11/29 11:52:37;;;;;;;18.00;17.20;;;8.70;55.40;;;;;;5090580;28;20508;-78
2022/11/29 11:55:29;;;;;;;17.47;16.73;;;8.60;65.10;;;;;;5085279;28;20460;-77
2022/11/29 11:58:05;;;;;;;17.67;16.93;;;8.60;66.50;;;;;;5091676;28;20572;-77
2022/11/29 12:00:40;;;;;;;18.03;17.33;;;8.70;52.50;;;;;;5094796;28;20444;-77
2022/11/29 12:03:45;;;;;;;18.27;17.37;;;8.70;63.30;;;;;;5098176;28;20451;-78
2022/11/29 12:06:31;;;;;;;18.43;17.60;;;8.60;66.20;;;;;;5096207;28;20493;-77
2022/11/29 12:09:04;;;;;;;19.00;18.10;;;8.70;75.00;;;;;;5095255;28;20994;-77
2022/11/29 12:11:41;;;;;;;18.70;18.00;;;8.80;68.90;;;;;;5098144;28;20488;-78
2022/11/29 12:14:18;;;;;;;19.10;18.20;;;8.80;64.90;;;;;;5092294;28;20446;-78
2022/11/29 12:16:50;;;;;;;18.50;17.70;;;8.70;61.40;;;;;;5094576;28;20568;-77
2022/11/29 12:19:23;;;;;;;17.93;17.13;;;8.80;58.60;;;;;;5095392;27;20450;-77
2022/11/29 12:21:59;;;;;;;18.73;17.87;;;8.90;59.60;;;;;;5095261;27;20449;-78
2022/11/29 12:24:34;;;;;;;18.80;17.90;;;8.80;49.30;;;;;;5097617;27;20439;-78
2022/11/29 12:27:05;;;;;;;18.00;17.20;;;8.90;46.30;;;;;;5094507;28;20467;-77
2022/11/29 12:29:35;;;;;;;18.10;17.30;;;8.80;47.70;;;;;;5097997;27;20436;-78
2022/11/29 12:32:18;;;;;;;18.87;17.37;;;8.80;39.50;;;;;;5101829;28;20464;-78
2022/11/29 12:35:00;;;;;;;18.33;17.53;;;8.80;29.60;;;;;;5088962;27;20451;-78
2022/11/29 12:37:35;;;;;;;18.97;18.17;;;8.80;45.00;;;;;;5095476;28;20550;-77
2022/11/29 12:40:13;;;;;;;20.07;19.10;;;8.70;54.80;;;;;;5096542;28;20445;-77
2022/11/29 12:42:51;;;;;;;19.53;18.57;;;8.80;58.70;;;;;;5092027;28;20469;-76
2022/11/29 12:45:34;;;;;;;18.67;17.90;;;8.80;48.40;;;;;;5092772;28;20455;-78
2022/11/29 12:48:17;;;;;;;19.63;18.73;;;8.90;57.00;;;;;;5096728;28;20477;-79
2022/11/29 12:50:55;;;;;;;19.13;18.33;;;8.90;47.80;;;;;;5098912;28;20891;-77
2022/11/29 12:53:39;;;;;;;19.77;18.87;;;8.80;37.50;;;;;;5095009;28;20769;-77
2022/11/29 12:56:14;;;;;;;20.10;19.20;;;8.80;42.30;;;;;;5096940;28;20460;-78
2022/11/29 12:58:55;;;;;;;20.03;19.03;;;8.80;46.00;;;;;;5096616;28;20490;-79
2022/11/29 13:01:34;;;;;;;19.50;18.60;;;8.70;43.00;;;;;;5095504;28;20492;-78
2022/11/29 13:04:09;;;;;;;20.13;19.07;;;8.70;30.20;;;;;;5092672;28;20452;-77
2022/11/29 13:06:44;;;;;;;19.80;18.80;;;8.80;37.50;;;;;;5099214;27;20552;-78
2022/11/29 13:09:37;;;;;;;20.63;19.53;;;8.80;36.40;;;;;;5092534;28;20455;-78
2022/11/29 13:12:11;;;;;;;20.20;19.10;;;8.80;50.10;;;;;;5096203;28;20480;-79
2022/11/29 13:14:48;;;;;;;20.10;19.07;;;8.90;37.10;;;;;;5096126;28;20472;-79
2022/11/29 13:17:27;;;;;;;19.53;18.53;;;8.90;25.00;;;;;;5095065;28;20475;-78
2022/11/29 13:20:02;;;;;;;20.07;18.97;;;8.80;33.10;;;;;;5091738;27;21326;-80
2022/11/29 13:22:45;;;;;;;19.10;18.20;;;8.90;46.20;;;;;;5092180;28;20538;-80
2022/11/29 13:25:18;;;;;;;18.77;17.97;;;8.90;18.50;;;;;;5090959;27;20459;-80
2022/11/29 13:27:58;;;;;;;18.40;17.60;;;8.90;28.30;;;;;;5096417;27;20472;-78